createdAt,value
2022-08-05T00:01:55.684Z,23.80
2022-08-05T00:04:37.039Z,23.80
2022-08-05T00:07:27.328Z,23.80
2022-08-05T00:09:54.595Z,23.70
2022-08-05T00:12:24.858Z,23.70
2022-08-05T00:14:53.546Z,23.70
2022-08-05T00:17:22.304Z,23.60
2022-08-05T00:20:01.923Z,23.60
2022-08-05T00:22:31.567Z,23.50
2022-08-05T00:25:00.294Z,23.30
2022-08-05T00:27:36.087Z,23.40
2022-08-05T00:30:11.456Z,23.40
2022-08-05T00:32:40.562Z,23.40
2022-08-05T00:35:10.122Z,23.30
2022-08-05T00:37:52.347Z,23.30
2022-08-05T00:40:27.750Z,23.30
2022-08-05T00:43:00.806Z,23.10
2022-08-05T00:45:38.484Z,23.10
2022-08-05T00:48:12.914Z,23.10
2022-08-05T00:50:45.823Z,23.00
2022-08-05T00:54:01.085Z,23.00
2022-08-05T00:58:45.531Z,22.90
2022-08-05T01:01:16.019Z,22.80
2022-08-05T01:04:13.922Z,22.80
2022-08-05T01:06:47.880Z,22.80
2022-08-05T01:09:20.017Z,22.80
2022-08-05T01:11:51.895Z,22.80
2022-08-05T01:14:27.898Z,22.60
2022-08-05T01:17:03.342Z,22.60
2022-08-05T01:20:02.214Z,22.60
2022-08-05T01:22:42.158Z,22.60
2022-08-05T01:25:40.647Z,22.50
2022-08-05T01:28:21.477Z,22.50
2022-08-05T01:30:55.524Z,22.50
2022-08-05T01:33:35.594Z,22.40
2022-08-05T01:36:13.163Z,22.40
2022-08-05T01:38:48.522Z,22.30
2022-08-05T01:41:25.787Z,22.30
2022-08-05T01:43:57.794Z,22.30
2022-08-05T01:46:42.487Z,22.30
2022-08-05T01:49:23.420Z,22.30
2022-08-05T01:51:58.151Z,22.20
2022-08-05T01:54:31.401Z,22.10
2022-08-05T01:58:11.253Z,22.10
2022-08-05T01:59:55.051Z,22.10
2022-08-05T02:02:28.394Z,22.10
2022-08-05T02:05:03.057Z,22.10
2022-08-05T02:07:33.746Z,22.10
2022-08-05T02:10:04.580Z,22.00
2022-08-05T02:12:44.514Z,22.00
2022-08-05T02:15:31.155Z,22.00
2022-08-05T02:18:28.706Z,22.00
2022-08-05T02:21:00.422Z,21.90
2022-08-05T02:23:35.754Z,21.90
2022-08-05T02:26:08.931Z,21.90
2022-08-05T02:28:45.807Z,21.90
2022-08-05T02:31:21.420Z,21.90
2022-08-05T02:33:57.783Z,21.90
2022-08-05T02:36:31.437Z,21.80
2022-08-05T02:39:03.349Z,21.70
2022-08-05T02:41:42.937Z,21.70
2022-08-05T02:44:25.391Z,21.70
2022-08-05T02:47:00.181Z,21.60
2022-08-05T02:49:36.842Z,21.50
2022-08-05T02:52:11.579Z,21.40
2022-08-05T02:54:51.171Z,21.40
2022-08-05T02:58:09.832Z,21.30
2022-08-05T03:00:14.510Z,21.40
2022-08-05T03:02:47.641Z,21.40
2022-08-05T03:05:17.649Z,21.30
2022-08-05T03:08:04.526Z,21.30
2022-08-05T03:10:36.707Z,21.30
2022-08-05T03:13:16.570Z,21.30
2022-08-05T03:15:46.428Z,21.30
2022-08-05T03:18:17.425Z,21.20
2022-08-05T03:20:48.630Z,21.20
2022-08-05T03:23:18.131Z,21.20
2022-08-05T03:26:04.932Z,21.20
2022-08-05T03:28:35.913Z,21.10
2022-08-05T03:31:06.716Z,21.10
2022-08-05T03:33:51.043Z,21.10
2022-08-05T03:36:30.440Z,21.10
2022-08-05T03:38:59.730Z,21.10
2022-08-05T03:41:33.156Z,21.00
2022-08-05T03:44:11.664Z,21.00
2022-08-05T03:46:40.836Z,20.90
2022-08-05T03:49:10.960Z,20.90
2022-08-05T03:52:38.780Z,20.90
2022-08-05T03:55:54.023Z,20.90
2022-08-05T03:57:42.268Z,20.90
2022-08-05T04:00:16.038Z,20.90
2022-08-05T04:02:57.519Z,20.90
2022-08-05T04:05:34.004Z,20.90
2022-08-05T04:08:05.865Z,21.00
2022-08-05T04:10:45.514Z,21.00
2022-08-05T04:13:14.434Z,21.10
2022-08-05T04:16:03.095Z,21.10
2022-08-05T04:18:34.448Z,21.00
2022-08-05T04:21:11.024Z,21.10
2022-08-05T04:23:57.197Z,21.10
2022-08-05T04:26:32.427Z,21.10
2022-08-05T04:29:07.153Z,21.20
2022-08-05T04:31:38.719Z,21.20
2022-08-05T04:34:31.217Z,21.20
2022-08-05T04:36:58.475Z,21.20
2022-08-05T04:39:27.608Z,21.30
2022-08-05T04:41:56.784Z,21.40
2022-08-05T04:44:29.954Z,21.40
2022-08-05T04:46:59.566Z,21.50
2022-08-05T04:49:38.584Z,21.50
2022-08-05T04:52:18.691Z,21.50
2022-08-05T04:54:47.523Z,21.60
2022-08-05T04:57:18.224Z,21.70
2022-08-05T04:59:47.950Z,21.70
2022-08-05T05:02:37.019Z,21.80
2022-08-05T05:05:26.006Z,21.80
2022-08-05T05:08:01.872Z,21.80
2022-08-05T05:10:33.503Z,21.90
2022-08-05T05:13:03.950Z,21.90
2022-08-05T05:15:56.890Z,22.00
2022-08-05T05:18:31.627Z,22.00
2022-08-05T05:21:03.819Z,22.10
2022-08-05T05:23:39.007Z,22.10
2022-08-05T05:26:28.778Z,22.20
2022-08-05T05:29:14.478Z,22.20
2022-08-05T05:31:46.342Z,22.20
2022-08-05T05:34:15.563Z,22.30
2022-08-05T05:36:45.701Z,22.30
2022-08-05T05:39:19.123Z,22.40
2022-08-05T05:41:54.552Z,22.40
2022-08-05T05:44:37.561Z,22.40
2022-08-05T05:47:21.619Z,22.60
2022-08-05T05:49:56.484Z,22.70
2022-08-05T05:52:30.058Z,22.80
2022-08-05T05:55:07.405Z,22.90
2022-08-05T05:57:52.963Z,23.10
2022-08-05T06:00:31.528Z,23.20
2022-08-05T06:03:03.564Z,23.20
2022-08-05T06:05:54.028Z,23.40
2022-08-05T06:08:32.415Z,23.50
2022-08-05T06:11:04.043Z,23.50
2022-08-05T06:13:40.595Z,23.60
2022-08-05T06:16:29.591Z,23.60
2022-08-05T06:19:05.661Z,23.70
2022-08-05T06:21:38.301Z,23.90
2022-08-05T06:24:11.750Z,24.10
2022-08-05T06:26:52.238Z,24.30
2022-08-05T06:29:42.896Z,24.70
2022-08-05T06:32:20.984Z,25.10
2022-08-05T06:34:56.311Z,25.70
2022-08-05T06:37:57.700Z,26.40
2022-08-05T06:40:18.539Z,27.10
2022-08-05T06:42:52.811Z,27.90
2022-08-05T06:45:44.108Z,28.60
2022-08-05T06:48:53.711Z,29.20
2022-08-05T06:51:00.395Z,29.50
2022-08-05T06:53:29.553Z,29.80
2022-08-05T06:55:59.709Z,29.90
2022-08-05T06:58:36.422Z,30.40
2022-08-05T07:01:07.758Z,31.30
2022-08-05T07:03:36.745Z,31.80
2022-08-05T07:06:14.399Z,32.40
2022-08-05T07:08:48.030Z,32.80
2022-08-05T07:11:22.513Z,33.20
2022-08-05T07:14:20.657Z,33.60
2022-08-05T07:18:00.541Z,34.10
2022-08-05T07:22:42.231Z,35.00
2022-08-05T07:25:54.417Z,36.10
2022-08-05T07:28:04.109Z,36.30
2022-08-05T07:30:39.904Z,36.80
2022-08-05T07:33:16.636Z,37.40
2022-08-05T07:36:02.996Z,37.50
2022-08-05T07:38:42.785Z,37.50
2022-08-05T07:41:35.183Z,37.60
2022-08-05T07:44:03.005Z,37.90
2022-08-05T07:46:34.956Z,37.70
2022-08-05T07:49:07.852Z,37.90
2022-08-05T07:51:48.946Z,38.40
2022-08-05T07:54:30.246Z,39.10
2022-08-05T07:57:13.611Z,39.50
2022-08-05T07:59:49.019Z,40.10
2022-08-05T08:02:19.712Z,40.30
2022-08-05T08:04:56.319Z,40.70
2022-08-05T08:07:28.438Z,41.10
2022-08-05T08:09:57.919Z,41.90
2022-08-05T08:12:38.071Z,41.60
2022-08-05T08:15:16.221Z,42.10
2022-08-05T08:17:52.411Z,42.60
2022-08-05T08:20:45.256Z,43.20
2022-08-05T08:24:02.165Z,43.50
2022-08-05T08:26:04.424Z,43.60
2022-08-05T08:28:35.746Z,44.30
2022-08-05T08:31:07.292Z,44.30
2022-08-05T08:33:38.531Z,45.00
2022-08-05T08:38:57.591Z,44.40
2022-08-05T08:41:50.806Z,43.80
2022-08-05T08:45:20.003Z,43.70
2022-08-05T08:47:46.970Z,44.10
2022-08-05T08:50:23.196Z,44.60
2022-08-05T08:52:55.799Z,44.80
2022-08-05T08:56:02.948Z,46.40
2022-08-05T08:58:16.485Z,47.30
2022-08-05T09:00:45.702Z,47.90
2022-08-05T09:03:16.309Z,47.70
2022-08-05T09:06:08.531Z,46.60
2022-08-05T09:08:40.621Z,46.30
2022-08-05T09:11:12.144Z,46.00
2022-08-05T09:14:01.246Z,46.20
2022-08-05T09:16:33.178Z,46.50
2022-08-05T09:19:06.858Z,46.70
2022-08-05T09:22:17.785Z,47.30
2022-08-05T09:24:26.212Z,48.10
2022-08-05T09:26:58.777Z,48.50
2022-08-05T09:29:47.586Z,49.00
2022-08-05T09:32:51.370Z,49.80
2022-08-05T09:35:26.683Z,49.30
2022-08-05T09:38:16.648Z,50.20
2022-08-05T09:40:52.459Z,50.70
2022-08-05T09:43:40.526Z,51.10
2022-08-05T09:46:28.450Z,51.10
2022-08-05T09:49:07.637Z,51.80
2022-08-05T09:51:49.418Z,51.30
2022-08-05T09:54:32.420Z,51.10
2022-08-05T09:57:01.971Z,52.50
2022-08-05T09:59:35.016Z,52.90
2022-08-05T10:02:06.794Z,52.60
2022-08-05T10:04:39.429Z,51.60
2022-08-05T10:07:20.405Z,51.20
2022-08-05T10:10:04.415Z,52.50
2022-08-05T10:12:49.804Z,53.10
2022-08-05T10:15:25.629Z,53.20
2022-08-05T10:18:16.864Z,53.10
2022-08-05T10:20:48.846Z,53.60
2022-08-05T10:23:34.494Z,54.10
2022-08-05T10:26:13.809Z,53.80
2022-08-05T10:28:44.981Z,53.20
2022-08-05T10:32:47.374Z,53.60
2022-08-05T10:34:08.012Z,54.00
2022-08-05T10:36:38.403Z,54.50
2022-08-05T10:39:11.847Z,54.50
2022-08-05T10:42:01.200Z,54.00
2022-08-05T10:44:32.801Z,53.70
2022-08-05T10:47:26.289Z,53.50
2022-08-05T10:50:20.453Z,53.80
2022-08-05T10:52:58.588Z,55.00
2022-08-05T10:55:32.901Z,54.60
2022-08-05T10:58:20.938Z,54.80
2022-08-05T11:00:55.101Z,55.60
2022-08-05T11:03:33.659Z,54.90
2022-08-05T11:06:15.913Z,54.70
2022-08-05T11:09:17.248Z,54.30
2022-08-05T11:11:53.386Z,54.30
2022-08-05T11:14:57.541Z,53.20
2022-08-05T11:17:59.345Z,51.60
2022-08-05T11:20:43.841Z,50.30
2022-08-05T11:24:02.930Z,49.20
2022-08-05T11:26:32.438Z,50.10
2022-08-05T11:29:12.668Z,51.90
2022-08-05T11:31:57.072Z,52.80
2022-08-05T11:34:50.766Z,54.10
2022-08-05T11:38:28.943Z,55.70
2022-08-05T11:41:01.317Z,55.20
2022-08-05T11:44:04.968Z,53.70
2022-08-05T11:46:37.804Z,53.80
2022-08-05T11:49:28.058Z,53.60
2022-08-05T11:51:57.516Z,51.80
2022-08-05T11:54:32.677Z,49.90
2022-08-05T11:57:08.095Z,49.60
2022-08-05T11:59:42.090Z,50.80
2022-08-05T12:02:24.012Z,52.30
2022-08-05T12:05:07.405Z,53.20
2022-08-05T12:08:07.567Z,53.50
2022-08-05T12:10:38.517Z,54.40
2022-08-05T12:13:47.486Z,55.00
2022-08-05T12:16:14.692Z,55.00
2022-08-05T12:18:48.960Z,55.70
2022-08-05T12:21:26.608Z,54.20
2022-08-05T12:24:04.630Z,53.00
2022-08-05T12:26:36.270Z,52.00
2022-08-05T12:29:09.853Z,52.40
2022-08-05T12:31:53.602Z,52.30
2022-08-05T12:34:26.979Z,52.90
2022-08-05T12:36:58.447Z,53.50
2022-08-05T12:39:37.235Z,53.90
2022-08-05T12:42:14.684Z,54.50
2022-08-05T12:44:44.776Z,54.40
2022-08-05T12:47:17.280Z,53.00
2022-08-05T12:50:03.594Z,51.30
2022-08-05T12:52:38.673Z,50.50
2022-08-05T12:55:22.333Z,51.00
2022-08-05T12:58:50.215Z,50.30
2022-08-05T13:02:03.206Z,49.90
2022-08-05T13:03:41.371Z,50.30
2022-08-05T13:06:17.685Z,50.20
2022-08-05T13:08:51.912Z,50.50
2022-08-05T13:11:59.709Z,51.90
2022-08-05T13:14:20.217Z,52.60
2022-08-05T13:16:56.839Z,52.40
2022-08-05T13:19:27.363Z,52.90
2022-08-05T13:22:29.515Z,51.90
2022-08-05T13:25:05.650Z,51.20
2022-08-05T13:27:39.597Z,51.40
2022-08-05T13:30:35.950Z,51.00
2022-08-05T13:33:01.185Z,51.30
2022-08-05T13:35:43.238Z,51.30
2022-08-05T13:38:28.120Z,51.80
2022-08-05T13:41:05.926Z,50.60
2022-08-05T13:43:43.391Z,49.50
2022-08-05T13:46:30.792Z,48.60
2022-08-05T13:49:13.249Z,48.70
2022-08-05T13:51:46.139Z,49.20
2022-08-05T13:54:21.198Z,50.10
2022-08-05T13:56:56.919Z,50.10
2022-08-05T13:59:31.511Z,48.60
2022-08-05T14:02:19.754Z,46.90
2022-08-05T14:05:11.470Z,46.70
2022-08-05T14:08:05.549Z,47.40
2022-08-05T14:10:37.474Z,47.70
2022-08-05T14:13:23.530Z,47.90
2022-08-05T14:16:06.817Z,47.80
2022-08-05T14:18:38.853Z,47.80
2022-08-05T14:22:08.219Z,48.70
2022-08-05T14:23:56.739Z,49.00
2022-08-05T14:26:38.328Z,48.30
2022-08-05T14:29:16.737Z,48.20
2022-08-05T14:32:02.749Z,49.00
2022-08-05T14:34:35.849Z,49.10
2022-08-05T14:37:05.599Z,49.50
2022-08-05T14:39:49.943Z,49.80
2022-08-05T14:42:29.496Z,50.10
2022-08-05T14:45:00.290Z,48.70
2022-08-05T14:48:04.270Z,48.80
2022-08-05T14:50:19.438Z,49.30
2022-08-05T14:52:58.501Z,49.70
2022-08-05T14:55:38.509Z,49.80
2022-08-05T14:58:13.659Z,49.90
2022-08-05T15:00:59.779Z,50.00
2022-08-05T15:03:33.769Z,49.60
2022-08-05T15:06:14.977Z,49.60
2022-08-05T15:08:57.724Z,49.30
2022-08-05T15:11:52.845Z,49.50
2022-08-05T15:14:33.952Z,49.40
2022-08-05T15:17:09.876Z,49.40
2022-08-05T15:19:56.415Z,49.30
2022-08-05T15:22:27.236Z,49.50
2022-08-05T15:24:59.423Z,49.30
2022-08-05T15:27:35.931Z,48.20
2022-08-05T15:30:06.782Z,48.30
2022-08-05T15:32:37.177Z,47.70
2022-08-05T15:35:10.850Z,47.20
2022-08-05T15:38:33.474Z,46.90
2022-08-05T15:40:58.221Z,46.40
2022-08-05T15:43:21.701Z,45.40
2022-08-05T15:46:00.551Z,44.80
2022-08-05T15:48:31.977Z,44.30
2022-08-05T15:51:03.405Z,43.80
2022-08-05T15:53:38.272Z,43.40
2022-08-05T15:56:20.294Z,43.10
2022-08-05T15:58:50.217Z,42.80
2022-08-05T16:01:20.197Z,42.50
2022-08-05T16:03:59.625Z,42.50
2022-08-05T16:06:28.661Z,42.30
2022-08-05T16:08:59.060Z,42.20
2022-08-05T16:11:39.889Z,41.90
2022-08-05T16:14:09.708Z,41.40
2022-08-05T16:16:38.784Z,40.90
2022-08-05T16:19:09.830Z,40.60
2022-08-05T16:22:01.003Z,40.40
2022-08-05T16:24:39.800Z,40.30
2022-08-05T16:27:16.076Z,40.10
2022-08-05T16:29:50.258Z,39.80
2022-08-05T16:32:28.740Z,39.50
2022-08-05T16:35:00.258Z,39.30
2022-08-05T16:38:16.768Z,39.20
2022-08-05T16:40:26.633Z,39.10
2022-08-05T16:42:58.823Z,38.90
2022-08-05T16:46:07.209Z,38.70
2022-08-05T16:48:25.568Z,38.60
2022-08-05T16:50:56.600Z,38.50
2022-08-05T16:53:32.032Z,38.40
2022-08-05T16:56:14.684Z,38.40
2022-08-05T16:58:43.719Z,38.40
2022-08-05T17:01:12.945Z,38.10
2022-08-05T17:03:42.054Z,37.90
2022-08-05T17:06:13.320Z,37.70
2022-08-05T17:08:53.048Z,37.60
2022-08-05T17:11:25.354Z,37.50
2022-08-05T17:14:05.665Z,37.60
2022-08-05T17:16:37.228Z,37.50
2022-08-05T17:19:09.609Z,37.40
2022-08-05T17:21:41.023Z,37.20
2022-08-05T17:24:34.962Z,37.10
2022-08-05T17:27:08.507Z,37.00
2022-08-05T17:29:41.045Z,36.80
2022-08-05T17:32:17.285Z,36.70
2022-08-05T17:34:55.710Z,36.40
2022-08-05T17:37:40.419Z,36.30
2022-08-05T17:40:14.503Z,36.10
2022-08-05T17:42:50.759Z,35.90
2022-08-05T17:45:22.283Z,35.90
2022-08-05T17:47:54.884Z,35.60
2022-08-05T17:50:28.315Z,35.30
2022-08-05T17:53:00.955Z,35.10
2022-08-05T17:55:37.523Z,35.00
2022-08-05T17:58:14.466Z,34.90
2022-08-05T18:00:47.266Z,34.70
2022-08-05T18:06:12.018Z,34.40
2022-08-05T18:08:45.061Z,34.30
2022-08-05T18:11:24.132Z,34.10
2022-08-05T18:13:55.462Z,33.90
2022-08-05T18:16:24.479Z,33.90
2022-08-05T18:18:53.280Z,33.70
2022-08-05T18:21:26.103Z,33.60
2022-08-05T18:23:58.588Z,33.60
2022-08-05T18:26:29.560Z,33.50
2022-08-05T18:29:01.230Z,33.50
2022-08-05T18:31:32.975Z,33.40
2022-08-05T18:34:05.962Z,32.60
2022-08-05T18:36:36.839Z,32.00
2022-08-05T18:39:22.641Z,31.70
2022-08-05T18:42:03.566Z,31.40
2022-08-05T18:44:49.273Z,31.20
2022-08-05T18:47:26.547Z,31.20
2022-08-05T18:50:15.774Z,31.10
2022-08-05T18:52:50.864Z,31.00
2022-08-05T18:55:22.420Z,30.90
2022-08-05T18:57:53.889Z,30.60
2022-08-05T19:00:29.080Z,30.70
2022-08-05T19:03:03.621Z,30.70
2022-08-05T19:06:11.915Z,30.40
2022-08-05T19:08:30.562Z,30.40
2022-08-05T19:11:16.294Z,30.20
2022-08-05T19:14:01.140Z,30.10
2022-08-05T19:16:46.816Z,30.00
2022-08-05T19:19:21.024Z,30.00
2022-08-05T19:21:51.686Z,29.90
2022-08-05T19:24:34.568Z,29.80
2022-08-05T19:27:08.813Z,29.80
2022-08-05T19:29:40.160Z,29.80
2022-08-05T19:32:13.077Z,29.80
2022-08-05T19:34:54.625Z,29.70
2022-08-05T19:37:29.913Z,29.80
2022-08-05T19:40:15.040Z,29.70
2022-08-05T19:43:04.890Z,29.50
2022-08-05T19:45:38.475Z,29.40
2022-08-05T19:48:24.914Z,29.30
2022-08-05T19:50:55.624Z,29.30
2022-08-05T19:54:05.399Z,29.20
2022-08-05T19:56:29.892Z,29.00
2022-08-05T19:59:53.842Z,29.00
2022-08-05T20:01:57.174Z,28.80
2022-08-05T20:04:27.360Z,28.70
2022-08-05T20:06:57.356Z,28.70
2022-08-05T20:09:26.314Z,28.60
2022-08-05T20:12:03.451Z,28.50
2022-08-05T20:14:36.974Z,28.50
2022-08-05T20:17:10.412Z,28.50
2022-08-05T20:19:48.923Z,28.50
2022-08-05T20:22:24.358Z,28.60
2022-08-05T20:24:56.436Z,28.50
2022-08-05T20:27:27.383Z,28.50
2022-08-05T20:30:14.048Z,28.40
2022-08-05T20:32:49.012Z,28.20
2022-08-05T20:35:18.373Z,28.20
2022-08-05T20:38:06.479Z,28.20
2022-08-05T20:40:39.194Z,28.10
2022-08-05T20:43:12.347Z,27.80
2022-08-05T20:45:56.202Z,27.80
2022-08-05T20:48:26.728Z,27.70
2022-08-05T20:51:08.002Z,27.60
2022-08-05T20:53:40.960Z,27.60
2022-08-05T20:56:13.213Z,27.50
2022-08-05T20:58:43.828Z,27.40
2022-08-05T21:01:14.292Z,27.40
2022-08-05T21:03:48.238Z,27.40
2022-08-05T21:06:27.977Z,27.50
2022-08-05T21:08:57.611Z,27.40
2022-08-05T21:12:09.991Z,27.40
2022-08-05T21:14:18.276Z,27.40
2022-08-05T21:16:49.858Z,27.50
2022-08-05T21:19:18.823Z,27.50
2022-08-05T21:21:51.150Z,27.50
2022-08-05T21:24:20.494Z,27.40
2022-08-05T21:26:58.366Z,27.30
2022-08-05T21:29:31.307Z,27.30
2022-08-05T21:32:03.801Z,27.10
2022-08-05T21:34:35.659Z,26.80
2022-08-05T21:37:05.250Z,26.60
2022-08-05T21:39:38.369Z,26.50
2022-08-05T21:42:30.970Z,26.60
2022-08-05T21:44:59.068Z,26.70
2022-08-05T21:47:54.902Z,26.70
2022-08-05T21:50:18.369Z,26.70
2022-08-05T21:52:47.535Z,26.80
2022-08-05T21:55:17.494Z,26.80
2022-08-05T21:57:46.494Z,26.70
2022-08-05T22:00:16.131Z,26.70
2022-08-05T22:02:46.857Z,26.60
2022-08-05T22:05:15.955Z,26.70
2022-08-05T22:07:58.855Z,26.60
2022-08-05T22:10:31.469Z,26.50
2022-08-05T22:14:06.121Z,26.50
2022-08-05T22:16:01.027Z,26.40
2022-08-05T22:18:39.036Z,26.00
2022-08-05T22:21:11.224Z,25.80
2022-08-05T22:24:09.117Z,25.80
2022-08-05T22:26:59.919Z,25.60
2022-08-05T22:29:30.833Z,25.50
2022-08-05T22:32:03.092Z,25.30
2022-08-05T22:34:34.407Z,25.20
2022-08-05T22:37:05.052Z,25.20
2022-08-05T22:39:34.755Z,25.30
2022-08-05T22:42:25.347Z,25.30
2022-08-05T22:44:56.332Z,25.30
2022-08-05T22:47:29.857Z,25.20
2022-08-05T22:50:20.556Z,25.30
2022-08-05T22:52:52.387Z,25.40
2022-08-05T22:55:21.947Z,25.50
2022-08-05T22:57:51.426Z,25.40
2022-08-05T23:00:22.022Z,25.50
2022-08-05T23:02:52.407Z,25.50
2022-08-05T23:05:23.576Z,25.50
2022-08-05T23:07:53.564Z,25.30
2022-08-05T23:10:23.856Z,25.20
2022-08-05T23:12:55.594Z,25.30
2022-08-05T23:15:26.998Z,25.30
2022-08-05T23:18:03.336Z,25.30
2022-08-05T23:20:37.250Z,25.20
2022-08-05T23:23:08.186Z,25.20
2022-08-05T23:25:53.362Z,25.30
2022-08-05T23:28:28.685Z,25.30
2022-08-05T23:31:16.522Z,24.90
2022-08-05T23:34:03.063Z,24.90
2022-08-05T23:36:40.103Z,24.50
2022-08-05T23:39:17.640Z,24.30
2022-08-05T23:42:01.308Z,24.20
2022-08-05T23:44:32.394Z,24.20
2022-08-05T23:47:02.514Z,24.10
2022-08-05T23:49:45.728Z,24.00
2022-08-05T23:52:30.751Z,23.90
2022-08-05T23:55:05.247Z,23.90
2022-08-05T23:57:36.605Z,24.00
